createdAt,value
2017-08-27T00:01:42.338Z,79.30
2017-08-27T00:04:15.905Z,79.00
2017-08-27T00:06:50.140Z,79.20
2017-08-27T00:09:24.479Z,79.10
2017-08-27T00:11:58.169Z,79.10
2017-08-27T00:14:31.691Z,79.20
2017-08-27T00:17:05.505Z,79.30
2017-08-27T00:19:39.119Z,79.10
2017-08-27T00:22:12.882Z,79.10
2017-08-27T00:24:46.453Z,79.00
2017-08-27T00:27:20.092Z,79.10
2017-08-27T00:29:53.697Z,79.00
2017-08-27T00:32:27.230Z,79.10
2017-08-27T00:35:00.985Z,78.90
2017-08-27T00:37:34.486Z,79.10
2017-08-27T00:40:08.085Z,79.00
2017-08-27T00:42:41.666Z,79.10
2017-08-27T00:45:15.253Z,79.10
2017-08-27T00:47:48.889Z,78.90
2017-08-27T00:50:22.395Z,79.10
2017-08-27T00:52:55.981Z,78.90
2017-08-27T00:55:29.596Z,79.00
2017-08-27T00:58:03.258Z,79.00
2017-08-27T01:00:36.900Z,78.90
2017-08-27T01:03:10.604Z,78.80
2017-08-27T01:05:44.254Z,78.90
2017-08-27T01:08:17.898Z,78.80
2017-08-27T01:10:51.507Z,78.70
2017-08-27T01:13:25.020Z,78.80
2017-08-27T01:15:58.578Z,78.70
2017-08-27T01:18:32.401Z,78.70
2017-08-27T01:21:05.950Z,78.60
2017-08-27T01:23:39.814Z,78.60
2017-08-27T01:26:13.444Z,78.50
2017-08-27T01:28:47.154Z,78.70
2017-08-27T01:31:20.774Z,78.60
2017-08-27T01:33:54.514Z,78.60
2017-08-27T01:36:28.233Z,78.50
2017-08-27T01:39:01.728Z,78.40
2017-08-27T01:41:35.214Z,78.60
2017-08-27T01:44:08.782Z,78.50
2017-08-27T01:46:42.625Z,78.50
2017-08-27T01:49:16.230Z,78.30
2017-08-27T01:51:50.649Z,78.30
2017-08-27T01:54:25.061Z,78.30
2017-08-27T01:56:58.886Z,78.30
2017-08-27T01:59:32.587Z,78.20
2017-08-27T02:02:06.150Z,78.20
2017-08-27T02:04:39.957Z,78.00
2017-08-27T02:07:13.883Z,78.00
2017-08-27T02:09:47.491Z,77.70
2017-08-27T02:12:21.079Z,77.80
2017-08-27T02:14:54.650Z,77.70
2017-08-27T02:17:28.974Z,77.80
2017-08-27T02:20:02.616Z,77.70
2017-08-27T02:22:36.835Z,77.50
2017-08-27T02:25:10.423Z,77.50
2017-08-27T02:27:44.834Z,77.40
2017-08-27T02:30:19.168Z,77.60
2017-08-27T02:32:52.658Z,77.50
2017-08-27T02:35:26.362Z,77.30
2017-08-27T02:38:00.583Z,77.40
2017-08-27T02:40:34.184Z,77.30
2017-08-27T02:43:07.679Z,77.30
2017-08-27T02:45:41.274Z,77.20
2017-08-27T02:48:15.206Z,77.20
2017-08-27T02:50:49.026Z,77.30
2017-08-27T02:53:22.787Z,77.10
2017-08-27T02:55:56.398Z,77.00
2017-08-27T02:58:30.686Z,77.00
2017-08-27T03:01:04.306Z,77.00
2017-08-27T03:03:37.874Z,77.00
2017-08-27T03:06:11.624Z,77.00
2017-08-27T03:08:45.239Z,76.90
2017-08-27T03:11:18.918Z,76.90
2017-08-27T03:13:52.590Z,76.90
2017-08-27T03:16:26.335Z,76.90
2017-08-27T03:19:00.045Z,76.80
2017-08-27T03:21:33.939Z,76.90
2017-08-27T03:24:07.742Z,76.80
2017-08-27T03:26:41.414Z,76.70
2017-08-27T03:29:15.474Z,76.80
2017-08-27T03:31:49.230Z,76.60
2017-08-27T03:34:22.962Z,76.60
2017-08-27T03:36:56.563Z,76.60
2017-08-27T03:39:30.166Z,76.70
2017-08-27T03:42:03.662Z,76.70
2017-08-27T03:44:37.217Z,76.60
2017-08-27T03:47:11.086Z,76.50
2017-08-27T03:49:44.674Z,76.50
2017-08-27T03:52:18.272Z,76.50
2017-08-27T03:54:51.847Z,76.10
2017-08-27T03:57:25.578Z,76.20
2017-08-27T03:59:59.174Z,76.40
2017-08-27T04:02:32.927Z,76.20
2017-08-27T04:05:06.690Z,76.20
2017-08-27T04:07:40.291Z,76.20
2017-08-27T04:10:14.678Z,76.20
2017-08-27T04:12:48.337Z,76.20
2017-08-27T04:15:22.023Z,76.00
2017-08-27T04:17:55.570Z,76.70
2017-08-27T04:20:29.158Z,76.00
2017-08-27T04:23:02.920Z,75.90
2017-08-27T04:25:37.142Z,75.80
2017-08-27T04:28:10.914Z,75.90
2017-08-27T04:30:44.635Z,75.90
2017-08-27T04:33:18.342Z,75.90
2017-08-27T04:35:51.942Z,75.70
2017-08-27T04:38:25.649Z,75.50
2017-08-27T04:40:59.246Z,75.70
2017-08-27T04:43:32.945Z,75.90
2017-08-27T04:46:06.451Z,75.60
2017-08-27T04:48:40.058Z,75.80
2017-08-27T04:51:14.483Z,75.50
2017-08-27T04:53:48.270Z,75.50
2017-08-27T04:56:21.884Z,75.50
2017-08-27T04:58:55.471Z,75.50
2017-08-27T05:01:29.795Z,75.40
2017-08-27T05:04:03.694Z,75.40
2017-08-27T05:06:37.370Z,75.40
2017-08-27T05:09:10.904Z,75.50
2017-08-27T05:11:44.396Z,75.50
2017-08-27T05:14:17.893Z,75.50
2017-08-27T05:16:51.690Z,75.50
2017-08-27T05:19:25.306Z,75.50
2017-08-27T05:21:58.902Z,75.60
2017-08-27T05:24:32.499Z,75.70
2017-08-27T05:27:07.067Z,75.80
2017-08-27T05:29:40.930Z,75.90
2017-08-27T05:32:14.545Z,76.60
2017-08-27T05:34:48.933Z,75.90
2017-08-27T05:37:22.621Z,76.00
2017-08-27T05:39:56.238Z,75.80
2017-08-27T05:42:30.058Z,76.00
2017-08-27T05:45:03.515Z,76.00
2017-08-27T05:47:37.774Z,76.10
2017-08-27T05:50:11.374Z,76.10
2017-08-27T05:52:44.974Z,76.20
2017-08-27T05:55:18.446Z,76.10
2017-08-27T05:57:52.080Z,76.10
2017-08-27T06:00:25.562Z,76.30
2017-08-27T06:02:59.465Z,76.50
2017-08-27T06:05:33.187Z,76.50
2017-08-27T06:08:06.886Z,76.60
2017-08-27T06:10:40.694Z,76.60
2017-08-27T06:13:14.196Z,76.50
2017-08-27T06:15:47.994Z,76.80
2017-08-27T06:18:21.447Z,76.90
2017-08-27T06:20:54.898Z,76.90
2017-08-27T06:23:28.451Z,77.00
2017-08-27T06:26:01.986Z,77.20
2017-08-27T06:28:35.631Z,76.70
2017-08-27T06:31:09.398Z,77.50
2017-08-27T06:33:42.895Z,77.50
2017-08-27T06:36:16.499Z,77.60
2017-08-27T06:38:50.458Z,77.60
2017-08-27T06:41:24.094Z,77.70
2017-08-27T06:43:57.706Z,77.90
2017-08-27T06:46:31.178Z,77.90
2017-08-27T06:49:04.827Z,78.10
2017-08-27T06:51:38.402Z,78.60
2017-08-27T06:54:12.003Z,78.30
2017-08-27T06:56:45.708Z,78.60
2017-08-27T06:59:19.206Z,78.20
2017-08-27T07:01:53.011Z,78.00
2017-08-27T07:04:26.658Z,77.80
2017-08-27T07:07:01.855Z,77.90
2017-08-27T07:09:35.518Z,78.20
2017-08-27T07:12:09.167Z,78.00
2017-08-27T07:14:42.859Z,78.00
2017-08-27T07:17:16.458Z,78.20
2017-08-27T07:19:50.006Z,77.90
2017-08-27T07:22:23.554Z,77.90
2017-08-27T07:24:57.262Z,78.00
2017-08-27T07:27:30.994Z,77.70
2017-08-27T07:30:04.853Z,77.70
2017-08-27T07:32:38.470Z,77.60
2017-08-27T07:35:12.800Z,77.40
2017-08-27T07:37:46.418Z,77.30
2017-08-27T07:40:20.062Z,77.30
2017-08-27T07:42:53.699Z,77.30
2017-08-27T07:45:27.167Z,77.30
2017-08-27T07:48:00.795Z,77.50
2017-08-27T07:50:34.594Z,77.60
2017-08-27T07:53:08.298Z,77.70
2017-08-27T07:55:41.886Z,77.80
2017-08-27T07:58:16.327Z,77.80
2017-08-27T08:00:50.223Z,77.60
2017-08-27T08:03:23.886Z,77.70
2017-08-27T08:05:57.649Z,77.80
2017-08-27T08:08:31.651Z,77.70
2017-08-27T08:11:05.339Z,77.50
2017-08-27T08:13:39.055Z,77.50
2017-08-27T08:16:12.654Z,77.40
2017-08-27T08:18:46.106Z,77.50
2017-08-27T08:21:19.791Z,77.60
2017-08-27T08:23:53.388Z,77.60
2017-08-27T08:26:27.004Z,78.20
2017-08-27T08:29:00.865Z,77.80
2017-08-27T08:31:34.460Z,78.10
2017-08-27T08:34:08.059Z,77.90
2017-08-27T08:36:42.642Z,78.00
2017-08-27T08:39:16.390Z,78.00
2017-08-27T08:41:49.982Z,78.10
2017-08-27T08:44:23.646Z,78.10
2017-08-27T08:46:57.902Z,78.20
2017-08-27T08:49:31.519Z,78.20
2017-08-27T08:52:05.180Z,78.70
2017-08-27T08:54:39.016Z,78.30
2017-08-27T08:57:12.687Z,78.40
2017-08-27T08:59:47.150Z,79.10
2017-08-27T09:02:20.896Z,78.50
2017-08-27T09:04:54.650Z,78.60
2017-08-27T09:07:28.234Z,78.60
2017-08-27T09:10:01.710Z,78.50
2017-08-27T09:12:35.352Z,78.50
2017-08-27T09:15:08.947Z,78.50
2017-08-27T09:17:42.442Z,78.50
2017-08-27T09:20:16.131Z,78.50
2017-08-27T09:22:50.214Z,78.60
2017-08-27T09:25:23.868Z,78.50
2017-08-27T09:27:57.770Z,78.50
2017-08-27T09:30:32.301Z,78.40
2017-08-27T09:33:05.890Z,78.40
2017-08-27T09:35:39.491Z,78.40
2017-08-27T09:38:13.197Z,78.20
2017-08-27T09:40:46.770Z,78.20
2017-08-27T09:43:20.363Z,78.10
2017-08-27T09:45:53.822Z,78.20
2017-08-27T09:48:27.598Z,78.10
2017-08-27T09:51:01.200Z,78.00
2017-08-27T09:53:34.898Z,77.90
2017-08-27T09:56:08.706Z,77.80
2017-08-27T09:58:42.307Z,77.50
2017-08-27T10:01:15.910Z,77.60
2017-08-27T10:03:49.508Z,77.40
2017-08-27T10:06:23.215Z,77.40
2017-08-27T10:08:56.810Z,77.20
2017-08-27T10:11:30.291Z,77.30
2017-08-27T10:14:03.918Z,77.30
2017-08-27T10:16:37.378Z,77.30
2017-08-27T10:19:10.986Z,77.30
2017-08-27T10:21:44.622Z,77.20
2017-08-27T10:24:18.574Z,77.30
2017-08-27T10:26:52.129Z,77.30
2017-08-27T10:29:25.623Z,77.30
2017-08-27T10:31:59.230Z,77.30
2017-08-27T10:34:33.029Z,77.20
2017-08-27T10:37:06.831Z,77.50
2017-08-27T10:39:40.364Z,77.10
2017-08-27T10:42:14.827Z,77.20
2017-08-27T10:44:48.451Z,77.10
2017-08-27T10:47:22.122Z,77.20
2017-08-27T10:49:55.798Z,77.10
2017-08-27T10:52:29.326Z,77.10
2017-08-27T10:55:03.267Z,76.90
2017-08-27T10:57:36.863Z,77.10
2017-08-27T11:00:10.318Z,77.10
2017-08-27T11:02:43.864Z,77.10
2017-08-27T11:05:18.559Z,77.10
2017-08-27T11:07:52.931Z,77.00
2017-08-27T11:10:27.336Z,76.80
2017-08-27T11:13:00.934Z,76.80
2017-08-27T11:15:34.734Z,76.90
2017-08-27T11:18:08.447Z,76.60
2017-08-27T11:20:42.034Z,76.50
2017-08-27T11:23:15.537Z,76.60
2017-08-27T11:25:49.005Z,76.60
2017-08-27T11:28:22.640Z,76.60
2017-08-27T11:30:56.131Z,76.70
2017-08-27T11:33:29.744Z,76.60
2017-08-27T11:36:03.648Z,76.50
2017-08-27T11:38:37.243Z,76.60
2017-08-27T11:41:10.898Z,76.60
2017-08-27T11:43:44.550Z,76.40
2017-08-27T11:46:18.939Z,76.20
2017-08-27T11:48:52.599Z,76.10
2017-08-27T11:51:26.371Z,76.10
2017-08-27T11:54:00.283Z,76.00
2017-08-27T11:56:33.771Z,76.00
2017-08-27T11:59:07.474Z,76.00
2017-08-27T12:01:41.081Z,76.00
2017-08-27T12:04:14.567Z,76.00
2017-08-27T12:06:48.193Z,76.10
2017-08-27T12:09:21.987Z,76.20
2017-08-27T12:11:55.891Z,76.40
2017-08-27T12:14:29.495Z,76.20
2017-08-27T12:17:04.010Z,76.70
2017-08-27T12:19:37.607Z,76.70
2017-08-27T12:22:11.181Z,76.70
2017-08-27T12:24:45.629Z,76.40
2017-08-27T12:27:19.443Z,76.40
2017-08-27T12:29:54.067Z,76.30
2017-08-27T12:32:27.765Z,76.30
2017-08-27T12:35:02.379Z,76.30
2017-08-27T12:37:35.995Z,76.40
2017-08-27T12:40:09.690Z,76.10
2017-08-27T12:42:43.292Z,76.10
2017-08-27T12:45:16.890Z,75.70
2017-08-27T12:47:50.387Z,75.80
2017-08-27T12:50:24.811Z,75.60
2017-08-27T12:52:58.525Z,75.70
2017-08-27T12:55:32.118Z,75.70
2017-08-27T12:58:05.718Z,75.60
2017-08-27T13:00:39.271Z,75.50
2017-08-27T13:03:12.820Z,75.50
2017-08-27T13:05:46.478Z,75.40
2017-08-27T13:08:20.528Z,75.30
2017-08-27T13:10:54.158Z,75.40
2017-08-27T13:13:27.675Z,76.00
2017-08-27T13:16:01.332Z,75.50
2017-08-27T13:18:35.652Z,75.40
2017-08-27T13:21:10.062Z,75.40
2017-08-27T13:23:43.767Z,75.50
2017-08-27T13:26:17.475Z,75.70
2017-08-27T13:28:51.582Z,75.80
2017-08-27T13:31:25.178Z,76.00
2017-08-27T13:33:58.782Z,75.90
2017-08-27T13:36:32.590Z,75.80
2017-08-27T13:39:06.502Z,75.90
2017-08-27T13:41:40.328Z,76.00
2017-08-27T13:44:14.006Z,76.10
2017-08-27T13:46:47.611Z,76.10
2017-08-27T13:49:21.113Z,76.20
2017-08-27T13:51:54.816Z,76.30
2017-08-27T13:54:28.415Z,76.30
2017-08-27T13:57:01.994Z,76.30
2017-08-27T13:59:35.815Z,76.30
2017-08-27T14:02:09.320Z,76.30
2017-08-27T14:04:43.432Z,76.30
2017-08-27T14:07:17.331Z,76.30
2017-08-27T14:09:50.834Z,76.70
2017-08-27T14:12:24.414Z,76.20
2017-08-27T14:14:57.990Z,76.10
2017-08-27T14:17:32.554Z,76.10
2017-08-27T14:20:06.268Z,76.10
2017-08-27T14:22:39.874Z,76.10
2017-08-27T14:25:13.432Z,76.10
2017-08-27T14:27:47.069Z,76.10
2017-08-27T14:30:20.740Z,76.10
2017-08-27T14:32:54.367Z,76.10
2017-08-27T14:35:28.079Z,76.20
2017-08-27T14:38:01.666Z,76.10
2017-08-27T14:40:35.123Z,76.30
2017-08-27T14:43:08.663Z,76.20
2017-08-27T14:45:42.271Z,76.20
2017-08-27T14:48:15.826Z,76.20
2017-08-27T14:50:49.469Z,76.20
2017-08-27T14:53:23.016Z,76.20
2017-08-27T14:55:56.873Z,76.10
2017-08-27T14:58:30.482Z,76.00
2017-08-27T15:01:04.026Z,76.20
2017-08-27T15:03:37.570Z,76.10
2017-08-27T15:06:11.135Z,76.20
2017-08-27T15:08:44.734Z,76.20
2017-08-27T15:11:18.343Z,76.10
2017-08-27T15:13:52.095Z,76.20
2017-08-27T15:16:25.982Z,76.00
2017-08-27T15:18:59.490Z,76.10
2017-08-27T15:21:32.979Z,76.10
2017-08-27T15:24:06.570Z,76.10
2017-08-27T15:26:40.090Z,76.00
2017-08-27T15:29:13.689Z,75.90
2017-08-27T15:31:47.284Z,76.00
2017-08-27T15:34:20.879Z,76.00
2017-08-27T15:36:54.378Z,76.00
2017-08-27T15:39:28.775Z,76.20
2017-08-27T15:42:02.294Z,75.90
2017-08-27T15:44:35.795Z,76.00
2017-08-27T15:47:09.299Z,76.00
2017-08-27T15:49:43.007Z,76.00
2017-08-27T15:52:16.626Z,76.00
2017-08-27T15:54:51.118Z,76.00
2017-08-27T15:57:24.611Z,76.00
2017-08-27T15:59:58.118Z,76.00
2017-08-27T16:02:31.654Z,76.00
2017-08-27T16:05:05.338Z,76.00
2017-08-27T16:07:39.030Z,76.50
2017-08-27T16:10:12.731Z,76.00
2017-08-27T16:12:46.543Z,76.00
2017-08-27T16:15:20.302Z,76.10
2017-08-27T16:17:53.944Z,76.10
2017-08-27T16:20:27.582Z,76.00
2017-08-27T16:23:01.168Z,76.00
2017-08-27T16:25:34.750Z,76.60
2017-08-27T16:28:08.430Z,75.90
2017-08-27T16:30:42.018Z,76.00
2017-08-27T16:33:16.394Z,75.90
2017-08-27T16:35:50.150Z,75.90
2017-08-27T16:38:23.714Z,75.80
2017-08-27T16:40:57.978Z,75.90
2017-08-27T16:43:31.677Z,75.90
2017-08-27T16:46:05.982Z,75.80
2017-08-27T16:48:39.758Z,75.70
2017-08-27T16:51:13.467Z,75.70
2017-08-27T16:53:46.962Z,75.60
2017-08-27T16:56:20.587Z,75.60
2017-08-27T16:58:54.178Z,75.60
2017-08-27T17:01:28.226Z,75.60
2017-08-27T17:04:02.115Z,76.00
2017-08-27T17:06:35.786Z,75.50
2017-08-27T17:09:09.338Z,75.50
2017-08-27T17:11:42.955Z,75.60
2017-08-27T17:14:16.742Z,75.40
2017-08-27T17:16:50.455Z,75.10
2017-08-27T17:19:24.154Z,75.20
2017-08-27T17:21:57.710Z,75.20
2017-08-27T17:24:31.291Z,75.20
2017-08-27T17:27:04.970Z,75.10
2017-08-27T17:29:38.544Z,75.10
2017-08-27T17:32:12.304Z,75.20
2017-08-27T17:34:45.952Z,75.10
2017-08-27T17:37:19.738Z,75.10
2017-08-27T17:39:53.330Z,75.10
2017-08-27T17:42:26.899Z,75.00
2017-08-27T17:45:00.720Z,74.80
2017-08-27T17:47:34.354Z,74.90
2017-08-27T17:50:08.687Z,74.80
2017-08-27T17:52:42.438Z,74.70
2017-08-27T17:55:16.046Z,74.50
2017-08-27T17:57:50.180Z,74.40
2017-08-27T18:00:24.337Z,74.60
2017-08-27T18:02:58.026Z,74.50
2017-08-27T18:05:31.534Z,74.60
2017-08-27T18:08:04.990Z,74.60
2017-08-27T18:10:38.699Z,74.60
2017-08-27T18:13:12.316Z,74.70
2017-08-27T18:15:45.878Z,74.70
2017-08-27T18:18:19.490Z,74.90
2017-08-27T18:20:53.110Z,75.00
2017-08-27T18:23:26.690Z,75.00
2017-08-27T18:26:00.310Z,75.00
2017-08-27T18:28:33.910Z,75.10
2017-08-27T18:31:07.571Z,75.00
2017-08-27T18:33:41.390Z,75.10
2017-08-27T18:36:15.789Z,75.00
2017-08-27T18:38:50.034Z,75.10
2017-08-27T18:41:23.764Z,75.10
2017-08-27T18:43:57.382Z,75.10
2017-08-27T18:46:31.167Z,75.20
2017-08-27T18:49:04.923Z,75.00
2017-08-27T18:51:38.435Z,75.00
2017-08-27T18:54:12.177Z,75.10
2017-08-27T18:56:46.391Z,75.10
2017-08-27T18:59:20.190Z,75.00
2017-08-27T19:01:53.790Z,75.20
2017-08-27T19:04:27.390Z,75.20
2017-08-27T19:07:00.945Z,75.20
2017-08-27T19:09:34.491Z,75.10
2017-08-27T19:12:08.295Z,75.10
2017-08-27T19:14:41.900Z,74.90
2017-08-27T19:17:15.598Z,74.80
2017-08-27T19:19:49.313Z,75.40
2017-08-27T19:22:23.642Z,74.80
2017-08-27T19:24:57.329Z,74.60
2017-08-27T19:27:30.774Z,74.90
2017-08-27T19:30:04.522Z,74.50
2017-08-27T19:32:38.135Z,74.40
2017-08-27T19:35:11.811Z,73.90
2017-08-27T19:37:45.391Z,74.30
2017-08-27T19:40:18.992Z,74.20
2017-08-27T19:42:53.252Z,74.10
2017-08-27T19:45:26.814Z,74.10
2017-08-27T19:48:00.551Z,74.00
2017-08-27T19:50:34.112Z,73.90
2017-08-27T19:53:07.894Z,73.90
2017-08-27T19:55:41.766Z,73.70
2017-08-27T19:58:15.558Z,73.70
2017-08-27T20:00:49.470Z,73.70
2017-08-27T20:03:23.597Z,73.50
2017-08-27T20:05:57.222Z,73.50
2017-08-27T20:08:31.099Z,73.40
2017-08-27T20:11:04.798Z,73.30
2017-08-27T20:13:38.398Z,73.20
2017-08-27T20:16:11.974Z,73.40
2017-08-27T20:18:45.598Z,73.50
2017-08-27T20:21:19.102Z,73.50
2017-08-27T20:23:52.658Z,73.30
2017-08-27T20:26:26.304Z,73.00
2017-08-27T20:28:59.995Z,72.70
2017-08-27T20:31:33.709Z,72.50
2017-08-27T20:34:07.498Z,72.50
2017-08-27T20:36:41.219Z,72.40
2017-08-27T20:39:15.430Z,72.40
2017-08-27T20:41:49.128Z,72.20
2017-08-27T20:44:22.787Z,72.30
2017-08-27T20:46:56.418Z,72.10
2017-08-27T20:49:30.036Z,72.20
2017-08-27T20:52:03.740Z,72.40
2017-08-27T20:54:37.450Z,72.50
2017-08-27T20:57:11.154Z,72.00
2017-08-27T20:59:44.746Z,72.10
2017-08-27T21:02:18.203Z,72.00
2017-08-27T21:04:52.047Z,72.00
2017-08-27T21:07:25.650Z,72.60
2017-08-27T21:09:59.326Z,71.80
2017-08-27T21:12:33.050Z,71.80
2017-08-27T21:15:06.626Z,71.90
2017-08-27T21:17:40.250Z,71.80
2017-08-27T21:20:13.746Z,71.50
2017-08-27T21:22:47.359Z,71.10
2017-08-27T21:25:21.780Z,70.50
2017-08-27T21:27:55.374Z,70.50
2017-08-27T21:30:28.874Z,70.40
2017-08-27T21:33:02.450Z,70.00
2017-08-27T21:35:36.030Z,69.80
2017-08-27T21:38:10.899Z,69.50
2017-08-27T21:40:44.578Z,69.40
2017-08-27T21:43:18.206Z,69.10
2017-08-27T21:45:51.703Z,69.20
2017-08-27T21:48:25.414Z,69.00
2017-08-27T21:50:59.106Z,68.70
2017-08-27T21:53:32.814Z,69.00
2017-08-27T21:56:06.390Z,68.60
2017-08-27T21:58:40.854Z,68.60
2017-08-27T22:01:15.358Z,68.30
2017-08-27T22:03:49.158Z,68.30
2017-08-27T22:06:22.684Z,68.10
2017-08-27T22:08:56.266Z,68.00
2017-08-27T22:11:29.802Z,67.80
2017-08-27T22:14:03.423Z,67.90
2017-08-27T22:16:37.171Z,67.90
2017-08-27T22:19:10.759Z,67.60
2017-08-27T22:21:44.261Z,67.50
2017-08-27T22:24:17.867Z,67.60
2017-08-27T22:26:51.450Z,67.40
2017-08-27T22:29:25.062Z,67.30
2017-08-27T22:31:59.458Z,67.10
2017-08-27T22:34:34.078Z,67.00
2017-08-27T22:37:07.583Z,66.80
2017-08-27T22:39:41.306Z,66.70
2017-08-27T22:42:14.914Z,66.40
2017-08-27T22:44:48.719Z,65.90
2017-08-27T22:47:23.387Z,65.80
2017-08-27T22:49:57.038Z,65.80
2017-08-27T22:52:31.120Z,66.00
2017-08-27T22:55:04.707Z,65.80
2017-08-27T22:57:38.314Z,65.70
2017-08-27T23:00:11.863Z,65.80
2017-08-27T23:02:45.300Z,65.30
2017-08-27T23:05:19.879Z,66.00
2017-08-27T23:07:53.570Z,65.30
2017-08-27T23:10:27.278Z,65.10
2017-08-27T23:13:01.779Z,65.10
2017-08-27T23:15:35.407Z,65.00
2017-08-27T23:18:09.102Z,64.80
2017-08-27T23:20:42.814Z,64.80
2017-08-27T23:23:16.615Z,64.70
2017-08-27T23:25:50.146Z,64.80
2017-08-27T23:28:23.783Z,64.60
2017-08-27T23:30:57.423Z,64.40
2017-08-27T23:33:30.870Z,64.30
2017-08-27T23:36:04.418Z,64.20
2017-08-27T23:38:38.214Z,64.20
2017-08-27T23:41:11.719Z,64.60
2017-08-27T23:43:45.314Z,64.40
2017-08-27T23:46:19.122Z,64.30
2017-08-27T23:48:52.668Z,64.10
2017-08-27T23:51:26.327Z,64.00
2017-08-27T23:54:00.026Z,63.80
2017-08-27T23:56:33.618Z,63.50
2017-08-27T23:59:07.230Z,63.70
